Hauptseite
METAR-TAF:

METAR-TAF

Flughäfen :

Militärflugplatz Volkel

Uden, Niederlande

Breite: 51-39N, Länge: 005-42E, Höhe: 22 m

Beobachtung

Neuester Wetterbericht von vor 39 Minuten, um 04:25 UTC
Wind 5 kt aus Süd/Südwest, variierte zwischen Süd/Südost und Südwest
Temperatur 7°C
Luftfeuchtigkeit 93%
Luftdruck 1025 hPa
Sichtweite 10 km oder mehr

METAR: EHVK 070425Z AUTO 20005KT 160V220 9999 NCD 07/06 Q1025 BLU

Zeit: 07:04 (05:04 UTC)

Prognose

Neuester Wetterbericht von vor 4 Stunden und 57 Minuten, um 00:07 UTC
Gültige Prognose vom 07 um 01 UTC bis 07 um 13 UTC
Wind 4 kt aus Süd/Südwest
Sichtweite 10 km oder mehr
keine Wolken unter 1500 m und keine Kumulonimbus oder Gewitterwolken
Übergehend zu
vom 07 um 09 UTC bis 07 um 12 UTC
Wind 10 kt aus Südwest, Böen bis zu 20 kt

TAF: EHVK 070007Z 0701/0713 21004KT CAVOK BECMG 0709/0712 23010G20KT

Wetterbeobachtungen und Prognosen von mehr als 4000 Flughäfen (METAR und TAF Bericht).

Die verfügbaren Stationen werden durch gelbe und rote Markierungen auf der Karte dargestellt.

Führen Sie die Maus auf sie, um den Namen der Station zu sehen.

Darauf klicken, um die Beobachtung von Wetterbeobachtungen und Prognosen zu sehen.

Um die Karte zu ändern : klicken Sie auf den grünen Tasten mit einem schwarzen Kreuz Zum Vergrößern, auf den grünen Button mit einem Gedankenstrich zu verkleinern, oder auf die grünen Pfeile für benachbarte Karten.


METAR-TAF: